M I D A S
Marine Information and Data Acquisition System
Tripno 1525 of the Zeeleeuw from 2008-07-24 07:07:13 to 2008-07-24 14:32:29
Back to CruiseResearch ActivitiesStationsMapUnderway DataData graphs

EquipmentUnitsComment
TimeDGPSUTC
LatitudeDGPSDM.mWGS84
LongitudeDGPSDM.mWGS84
HeadingGyrodeg 
SOGDGPSknotsSpeed over ground
COGDGPSdegCourse over ground
DepthEcho soundermeters200 kHz
Missing or incorrect values are displayed as -999
Navigation data collected by the RV Zeeleeuw from 2008-07-24 07:07:16 to 2008-07-24 14:45:47
                                                                                    Next 1000 lines
Time Latitude Longitude Heading SOG COG Depth
2008-07-24 07:07:26 51°13.622 2°56.048 117.8 0.1 187 9
2008-07-24 07:07:31 51°13.622 2°56.048 116 0.2 190 8.9
2008-07-24 07:07:36 51°13.622 2°56.048 114.1 0.1 236 9
2008-07-24 07:07:40 51°13.622 2°56.047 112.3 0.4 273 8.9
2008-07-24 07:07:46 51°13.622 2°56.046 110.8 0.6 283 9
2008-07-24 07:07:51 51°13.623 2°56.044 109.7 0.9 283 8.9
2008-07-24 07:07:56 51°13.623 2°56.041 109.1 1.1 286 8.8
2008-07-24 07:08:01 51°13.624 2°56.038 108.9 1.4 287 8.9
2008-07-24 07:08:06 51°13.624 2°56.035 108.9 1.6 289 8.6
2008-07-24 07:08:11 51°13.625 2°56.031 109.5 1.8 290 9.1
2008-07-24 07:08:16 51°13.626 2°56.027 110.5 2 292 4.8
2008-07-24 07:08:20 51°13.627 2°56.023 111.9 2.2 293 -999
2008-07-24 07:08:26 51°13.629 2°56.018 113.7 2.4 294 -999
2008-07-24 07:08:31 51°13.63 2°56.012 114.7 2.6 296 -999
2008-07-24 07:08:36 51°13.632 2°56.007 115.9 2.8 296 -999
2008-07-24 07:08:41 51°13.634 2°56.001 116.5 3 298 -999
2008-07-24 07:08:46 51°13.636 2°55.995 117 3.1 297 -999
2008-07-24 07:08:51 51°13.638 2°55.988 117.2 3.3 298 -999
2008-07-24 07:08:56 51°13.641 2°55.982 117.2 3.4 298 -999
2008-07-24 07:09:01 51°13.643 2°55.975 117.2 3.5 297 -999
2008-07-24 07:09:06 51°13.645 2°55.968 116.7 3.6 297 -999
2008-07-24 07:09:11 51°13.647 2°55.96 115.9 3.7 295 -999
2008-07-24 07:09:16 51°13.65 2°55.953 115.1 3.9 294 -999
2008-07-24 07:09:21 51°13.652 2°55.944 113.9 4 292 -999
2008-07-24 07:09:26 51°13.654 2°55.936 112.1 4 290 -999
2008-07-24 07:09:31 51°13.655 2°55.927 110.8 4.1 289 -999
2008-07-24 07:09:36 51°13.657 2°55.919 109.7 4.2 290 -999
2008-07-24 07:09:41 51°13.659 2°55.91 110.1 4.1 289 -999
2008-07-24 07:09:46 51°13.661 2°55.902 111.4 4.1 292 -999
2008-07-24 07:09:51 51°13.664 2°55.893 113.1 4 293 -999
2008-07-24 07:09:56 51°13.666 2°55.886 115.4 4 296 -999
2008-07-24 07:10:00 51°13.668 2°55.88 117.5 3.9 298 -999
2008-07-24 07:10:06 51°13.671 2°55.871 119.7 3.9 300 -999
2008-07-24 07:10:11 51°13.674 2°55.863 121.8 4 302 -999
2008-07-24 07:10:16 51°13.677 2°55.856 123.7 4.1 304 10.2
2008-07-24 07:10:21 51°13.681 2°55.848 125.4 4.2 307 -999
2008-07-24 07:10:26 51°13.685 2°55.841 126.9 4.3 308 -999
2008-07-24 07:10:31 51°13.689 2°55.833 128.5 4.4 310 -999
2008-07-24 07:10:36 51°13.693 2°55.825 129.7 4.5 311 -999
2008-07-24 07:10:41 51°13.697 2°55.818 130.6 4.7 311 -999
2008-07-24 07:10:46 51°13.701 2°55.81 131.2 4.8 312 -999
2008-07-24 07:10:51 51°13.706 2°55.802 131.6 4.7 313 -999
2008-07-24 07:10:56 51°13.71 2°55.795 131.7 4.5 313 -999
2008-07-24 07:11:01 51°13.714 2°55.788 131.7 4.5 313 -999
2008-07-24 07:11:06 51°13.718 2°55.781 131.2 4.5 312 -999
2008-07-24 07:11:11 51°13.722 2°55.773 130 4.5 311 -999
2008-07-24 07:11:16 51°13.726 2°55.766 128.2 4.5 310 -999
2008-07-24 07:11:20 51°13.729 2°55.759 126.5 4.5 308 -999
2008-07-24 07:11:26 51°13.734 2°55.75 124.9 4.5 306 -999
2008-07-24 07:11:31 51°13.737 2°55.742 122.6 4.5 304 -999
2008-07-24 07:11:36 51°13.741 2°55.733 119.8 4.4 302 -999
2008-07-24 07:11:41 51°13.744 2°55.725 118.1 4.2 301 -999
2008-07-24 07:11:46 51°13.746 2°55.718 116.1 3.9 300 -999
2008-07-24 07:11:51 51°13.749 2°55.711 114.7 3.6 299 -999
2008-07-24 07:11:56 51°13.751 2°55.704 113.1 3.2 298 -999
2008-07-24 07:12:01 51°13.753 2°55.699 111.7 2.8 297 -999
2008-07-24 07:12:06 51°13.754 2°55.694 109.8 2.4 298 -999
2008-07-24 07:12:11 51°13.756 2°55.69 108.3 2.1 296 10.7
2008-07-24 07:12:16 51°13.757 2°55.688 106.7 1.6 302 10.8
2008-07-24 07:12:20 51°13.757 2°55.686 104.6 1 306 10.9
2008-07-24 07:12:25 51°13.758 2°55.686 101.3 0.7 335 11
2008-07-24 07:12:30 51°13.759 2°55.686 97.3 0.6 11 10.9
2008-07-24 07:12:35 51°13.76 2°55.687 92.5 0.9 41 10.9
2008-07-24 07:12:40 51°13.761 2°55.69 87 1.2 53 10.8
2008-07-24 07:12:44 51°13.762 2°55.692 80.7 1.6 54 10.9
2008-07-24 07:12:49 51°13.764 2°55.695 74 1.7 57 10.8
2008-07-24 07:12:54 51°13.765 2°55.698 67.2 1.7 45 10.8
2008-07-24 07:12:58 51°13.766 2°55.699 61.9 1.3 43 10.8
2008-07-24 07:13:03 51°13.767 2°55.7 58.3 0.9 29 10.8
2008-07-24 07:13:08 51°13.768 2°55.7 54.7 0.5 7 10.7
2008-07-24 07:13:13 51°13.768 2°55.7 51.4 0.4 309 10.7
2008-07-24 07:13:17 51°13.768 2°55.698 48.5 0.6 270 10.7
2008-07-24 07:13:23 51°13.768 2°55.696 45.9 0.9 248 10.8
2008-07-24 07:13:28 51°13.767 2°55.694 43.7 1.3 240 10.8
2008-07-24 07:13:32 51°13.766 2°55.692 41.4 1.6 233 10.8
2008-07-24 07:13:38 51°13.763 2°55.688 38.5 1.9 229 -999
2008-07-24 07:13:44 51°13.761 2°55.684 35.8 1.8 227 -999
2008-07-24 07:13:49 51°13.76 2°55.682 33.6 1.7 226 -999
2008-07-24 07:13:55 51°13.758 2°55.679 31.5 1.2 232 -999
2008-07-24 07:14:01 51°13.758 2°55.678 29.1 0.5 265 -999
2008-07-24 07:14:06 51°13.76 2°55.678 25.1 0.9 353 -999
2008-07-24 07:14:11 51°13.762 2°55.677 17.1 1.8 358 -999
2008-07-24 07:14:16 51°13.766 2°55.677 8.9 2.6 357 -999
2008-07-24 07:14:21 51°13.77 2°55.676 1.4 3.4 352 -999
2008-07-24 07:14:26 51°13.776 2°55.674 356.3 4 347 -999
2008-07-24 07:14:31 51°13.782 2°55.671 349.7 4.6 343 -999
2008-07-24 07:14:36 51°13.789 2°55.667 345.2 5.2 341 11.1
2008-07-24 07:14:41 51°13.796 2°55.663 343.5 5.6 341 11
2008-07-24 07:14:45 51°13.802 2°55.659 341.9 6.2 339 11.1
2008-07-24 07:14:50 51°13.811 2°55.653 340.3 6.7 338 11.1
2008-07-24 07:14:55 51°13.82 2°55.647 339.1 7.1 336 11.2
2008-07-24 07:15:00 51°13.83 2°55.64 338.1 7.5 336 11.5
2008-07-24 07:15:04 51°13.838 2°55.635 337.4 7.8 336 11.4
2008-07-24 07:15:09 51°13.848 2°55.628 337.6 8.1 337 11.4
2008-07-24 07:15:14 51°13.858 2°55.62 337.7 8.2 336 11.2
2008-07-24 07:15:19 51°13.868 2°55.613 337.6 8.2 337 11.1
2008-07-24 07:15:24 51°13.879 2°55.605 338 8.1 337 11
2008-07-24 07:15:28 51°13.887 2°55.6 338.6 8.1 338 10.8
2008-07-24 07:15:33 51°13.897 2°55.593 338.9 8 337 10.9
2008-07-24 07:15:38 51°13.907 2°55.586 338.1 6 336 11
2008-07-24 07:15:43 51°13.917 2°55.58 337.5 7.3 337 11
2008-07-24 07:15:48 51°13.927 2°55.573 337.5 7.9 335 11.2
2008-07-24 07:15:52 51°13.935 2°55.567 337.2 7.8 336 11.1
2008-07-24 07:15:58 51°13.947 2°55.559 337 7.7 334 11.1
2008-07-24 07:16:03 51°13.956 2°55.552 336.3 7.5 334 11.1
2008-07-24 07:16:08 51°13.965 2°55.544 335.4 7.4 333 11.1
2008-07-24 07:16:12 51°13.972 2°55.539 334.9 7.3 334 11.1
2008-07-24 07:16:16 51°13.98 2°55.533 334.8 7.2 333 11.1
2008-07-24 07:16:23 51°13.992 2°55.523 334.5 7.1 333 11.1
2008-07-24 07:16:28 51°14 2°55.515 333.9 7.1 332 11.1
2008-07-24 07:16:32 51°14.007 2°55.51 333.8 7 333 11.2
2008-07-24 07:16:37 51°14.016 2°55.503 333.7 6.9 333 11.1
2008-07-24 07:16:42 51°14.024 2°55.496 334.1 6.9 333 11.1
2008-07-24 07:16:48 51°14.034 2°55.488 334.5 6.8 333 11.1
2008-07-24 07:16:52 51°14.041 2°55.482 334.5 6.8 334 11.3
2008-07-24 07:16:57 51°14.05 2°55.476 334.6 6.8 334 11.3
2008-07-24 07:17:03 51°14.06 2°55.468 334.6 6.8 334 11.3
2008-07-24 07:17:08 51°14.068 2°55.461 334.6 6.7 334 11.3
2008-07-24 07:17:13 51°14.077 2°55.455 334.7 6.7 334 11.3
2008-07-24 07:17:17 51°14.083 2°55.449 334.5 6.8 334 11.4
2008-07-24 07:17:23 51°14.094 2°55.44 334.2 7.2 333 11.3
2008-07-24 07:17:28 51°14.103 2°55.433 333.9 7.5 333 11.4
2008-07-24 07:17:32 51°14.111 2°55.426 333.9 7.9 332 11.4
2008-07-24 07:17:37 51°14.121 2°55.417 333 8.2 331 11.3
2008-07-24 07:17:42 51°14.132 2°55.408 332.7 8.5 331 11.3
2008-07-24 07:17:48 51°14.144 2°55.396 332.1 8.8 330 11.3
2008-07-24 07:17:53 51°14.155 2°55.386 330.6 9 328 11.3
2008-07-24 07:17:58 51°14.166 2°55.374 328.9 9.3 326 11.3
2008-07-24 07:18:03 51°14.177 2°55.362 327.4 9.5 325 11.2
2008-07-24 07:18:08 51°14.187 2°55.349 326.3 9.7 324 11.3
2008-07-24 07:18:12 51°14.196 2°55.339 325.3 9.8 323 11.4
2008-07-24 07:18:17 51°14.207 2°55.325 323.9 9.9 321 11.3
2008-07-24 07:18:23 51°14.22 2°55.308 322.5 10 320 11.1
2008-07-24 07:18:28 51°14.23 2°55.293 321.2 10.1 319 11.1
2008-07-24 07:18:32 51°14.238 2°55.281 320 10 317 11.1
2008-07-24 07:18:38 51°14.25 2°55.263 318.5 10 317 11.3
2008-07-24 07:18:43 51°14.26 2°55.247 317.4 10 315 11.3
2008-07-24 07:18:48 51°14.27 2°55.232 317.3 10.1 316 10.8
2008-07-24 07:18:52 51°14.278 2°55.219 317 10.3 314 10.8
2008-07-24 07:18:57 51°14.288 2°55.202 315.6 10.6 314 10.7
2008-07-24 07:19:02 51°14.299 2°55.185 315.1 10.7 314 10.8
2008-07-24 07:19:08 51°14.311 2°55.164 316 10.9 315 10.8
2008-07-24 07:19:12 51°14.319 2°55.149 315.2 11 311 11.1
2008-07-24 07:19:17 51°14.33 2°55.131 313.8 11.1 311 11.1
2008-07-24 07:19:22 51°14.339 2°55.111 312.1 11.3 309 11.3
2008-07-24 07:19:28 51°14.351 2°55.087 310.9 11.5 307 11.1
2008-07-24 07:19:33 51°14.361 2°55.066 309.1 11.6 306 11.5
2008-07-24 07:19:37 51°14.368 2°55.049 308.1 11.7 305 11.6
2008-07-24 07:19:43 51°14.379 2°55.023 306.8 11.8 303 11
2008-07-24 07:19:47 51°14.385 2°55.005 304.7 11.9 301 10.7
2008-07-24 07:19:52 51°14.394 2°54.982 303 12 300 10.8
2008-07-24 07:19:57 51°14.402 2°54.959 302.9 12.1 301 10.8
2008-07-24 07:20:02 51°14.41 2°54.935 302.6 12.2 299 11
2008-07-24 07:20:08 51°14.421 2°54.907 302.6 12.2 301 11.3
2008-07-24 07:20:13 51°14.429 2°54.883 302.9 12.3 298 11.1
2008-07-24 07:20:17 51°14.435 2°54.864 301.4 12.3 297 11.1
2008-07-24 07:20:23 51°14.444 2°54.834 299.7 12.3 295 11.2
2008-07-24 07:20:28 51°14.451 2°54.809 298.5 12.4 296 11.2
2008-07-24 07:20:32 51°14.457 2°54.789 298.4 12.4 295 11.2
2008-07-24 07:20:38 51°14.466 2°54.76 298.5 12.4 296 11.6
2008-07-24 07:20:43 51°14.474 2°54.736 298.9 12.4 296 11
2008-07-24 07:20:48 51°14.481 2°54.711 299.4 12.4 296 11.5
2008-07-24 07:20:52 51°14.487 2°54.691 299.4 12.5 296 11.2
2008-07-24 07:20:57 51°14.495 2°54.666 299.1 12.5 296 11.2
2008-07-24 07:21:03 51°14.504 2°54.636 299.1 12.5 296 11.2
2008-07-24 07:21:08 51°14.512 2°54.612 299.2 12.5 296 11.5
2008-07-24 07:21:12 51°14.518 2°54.592 298.9 12.5 296 11.3
2008-07-24 07:21:17 51°14.526 2°54.567 298.9 12.5 296 11.3
2008-07-24 07:21:23 51°14.535 2°54.537 299.2 12.5 296 10.9
2008-07-24 07:21:28 51°14.542 2°54.513 298.9 12.5 296 11.4
2008-07-24 07:21:32 51°14.548 2°54.492 297.7 12.5 294 11.4
2008-07-24 07:21:37 51°14.555 2°54.468 297.9 12.5 295 11.4
2008-07-24 07:21:43 51°14.564 2°54.437 297.6 12.5 294 11.1
2008-07-24 07:21:47 51°14.569 2°54.417 297 12.4 293 11.3
2008-07-24 07:21:53 51°14.577 2°54.387 296 12.5 293 11
2008-07-24 07:21:57 51°14.583 2°54.366 295.2 12.5 293 11.4
2008-07-24 07:22:03 51°14.591 2°54.336 295 12.4 293 11
2008-07-24 07:22:07 51°14.596 2°54.316 295 12.4 293 11
2008-07-24 07:22:12 51°14.602 2°54.29 294.8 12.5 292 11.1
2008-07-24 07:22:17 51°14.609 2°54.265 295.3 12.5 294 11.1
2008-07-24 07:22:22 51°14.616 2°54.239 295 12.5 292 11.9
2008-07-24 07:22:28 51°14.624 2°54.209 295.3 12.5 294 11.1
2008-07-24 07:22:33 51°14.631 2°54.184 296 12.5 294 11.2
2008-07-24 07:22:37 51°14.637 2°54.164 296.2 12.5 294 11.3
2008-07-24 07:22:43 51°14.646 2°54.133 296.7 12.6 295 11.6
2008-07-24 07:22:48 51°14.653 2°54.108 296.9 12.6 295 11.6
2008-07-24 07:22:52 51°14.659 2°54.088 297.3 12.6 297 11.8
2008-07-24 07:22:58 51°14.669 2°54.059 298.4 12.5 296 11.1
2008-07-24 07:23:03 51°14.677 2°54.034 298.6 12.5 298 11.6
2008-07-24 07:23:08 51°14.685 2°54.01 299.1 12.5 297 11.3
2008-07-24 07:23:12 51°14.691 2°53.99 299.3 12.4 298 11.1
2008-07-24 07:23:17 51°14.699 2°53.966 299.7 12.3 298 11.4
2008-07-24 07:23:23 51°14.709 2°53.937 299.7 12.4 298 11.2
2008-07-24 07:23:28 51°14.717 2°53.913 300 12.4 299 11.3
2008-07-24 07:23:32 51°14.724 2°53.894 300.5 12.3 299 11
2008-07-24 07:23:37 51°14.733 2°53.871 301.5 12.3 301 11
2008-07-24 07:23:42 51°14.741 2°53.847 301.4 12.3 299 10.7
2008-07-24 07:23:48 51°14.751 2°53.818 300.9 12.3 299 10.9
2008-07-24 07:23:53 51°14.759 2°53.794 300.4 12.3 298 10.8
2008-07-24 07:23:57 51°14.765 2°53.775 300.2 12.3 298 10.5
2008-07-24 07:24:03 51°14.775 2°53.746 299.7 12.3 299 10.9
2008-07-24 07:24:08 51°14.783 2°53.722 300 12.3 298 10.9
2008-07-24 07:24:12 51°14.789 2°53.703 300 12.3 298 10.8
2008-07-24 07:24:17 51°14.797 2°53.679 300.2 12.3 298 10.7
2008-07-24 07:24:22 51°14.805 2°53.655 300 12.3 299 10.6
2008-07-24 07:24:28 51°14.815 2°53.627 300 12.2 298 10.5
2008-07-24 07:24:33 51°14.823 2°53.603 300 12.2 299 10.6
2008-07-24 07:24:37 51°14.83 2°53.584 300.3 12.2 299 10.5
2008-07-24 07:24:43 51°14.84 2°53.556 300.2 12.2 298 10.7
2008-07-24 07:24:48 51°14.848 2°53.532 300 12.2 299 10.6
2008-07-24 07:24:53 51°14.856 2°53.508 299.9 12.2 298 10.5
2008-07-24 07:24:58 51°14.864 2°53.485 299.9 12.2 299 10.5
2008-07-24 07:25:03 51°14.872 2°53.461 300.3 12.2 298 10.4
2008-07-24 07:25:08 51°14.88 2°53.437 299.9 12.2 297 10.5
2008-07-24 07:25:12 51°14.886 2°53.417 299.7 12.2 297 10.4
2008-07-24 07:25:17 51°14.893 2°53.393 299.3 12.2 296 10.4
2008-07-24 07:25:23 51°14.902 2°53.364 299.5 12.3 297 10.4
2008-07-24 07:25:28 51°14.91 2°53.34 299.6 12.3 297 10.4
2008-07-24 07:25:32 51°14.916 2°53.321 300.4 12.3 297 10.4
2008-07-24 07:25:37 51°14.924 2°53.296 300.5 12.3 297 10.4
2008-07-24 07:25:42 51°14.932 2°53.272 300.4 12.2 296 10.4
2008-07-24 07:25:48 51°14.941 2°53.243 300.1 12.2 297 10.4
2008-07-24 07:25:52 51°14.947 2°53.224 300.4 12.3 297 10.5
2008-07-24 07:25:57 51°14.955 2°53.2 300.4 12.3 298 10.6
2008-07-24 07:26:03 51°14.965 2°53.171 300.7 12.3 297 10.6
2008-07-24 07:26:08 51°14.973 2°53.147 301 12.3 298 10.6
2008-07-24 07:26:13 51°14.98 2°53.123 300.8 12.3 297 10.5
2008-07-24 07:26:17 51°14.987 2°53.104 300.4 12.3 298 10.5
2008-07-24 07:26:23 51°14.996 2°53.075 300.6 12.2 297 10.4
2008-07-24 07:26:28 51°15.004 2°53.051 300.7 12.3 297 10.5
2008-07-24 07:26:32 51°15.01 2°53.031 300.7 12.3 297 10.5
2008-07-24 07:26:37 51°15.018 2°53.007 300.4 12.3 297 10.4
2008-07-24 07:26:42 51°15.025 2°52.983 300.4 12.3 297 10.4
2008-07-24 07:26:48 51°15.035 2°52.954 300.7 12.3 298 10.5
2008-07-24 07:26:53 51°15.043 2°52.929 301.1 12.3 297 10.4
2008-07-24 07:26:57 51°15.049 2°52.91 301.1 12.3 298 10.6
2008-07-24 07:27:03 51°15.059 2°52.881 301.4 12.4 297 10.7
2008-07-24 07:27:08 51°15.066 2°52.857 301 12.3 297 10.5
2008-07-24 07:27:12 51°15.072 2°52.838 300.4 12.3 297 10.6
2008-07-24 07:27:18 51°15.082 2°52.808 300.5 12.4 297 10.8
2008-07-24 07:27:23 51°15.09 2°52.784 300.4 12.4 297 10.8
2008-07-24 07:27:28 51°15.097 2°52.76 300.6 12.4 297 10.8
2008-07-24 07:27:32 51°15.104 2°52.74 300.6 12.4 296 10.9
2008-07-24 07:27:37 51°15.111 2°52.716 300.4 12.4 297 10.7
2008-07-24 07:27:43 51°15.121 2°52.686 300.8 12.4 298 10.8
2008-07-24 07:27:48 51°15.129 2°52.662 301.5 12.4 297 10.8
2008-07-24 07:27:52 51°15.136 2°52.643 301.5 12.4 298 10.8
2008-07-24 07:27:57 51°15.144 2°52.618 301.4 12.4 298 10.9
2008-07-24 07:28:03 51°15.153 2°52.589 301.5 12.4 298 10.8
2008-07-24 07:28:08 51°15.161 2°52.565 301.1 12.4 298 10.6
2008-07-24 07:28:12 51°15.167 2°52.546 300.8 12.3 297 10.8
2008-07-24 07:28:17 51°15.175 2°52.521 300.9 12.3 298 10.9
2008-07-24 07:28:23 51°15.185 2°52.493 301.1 12.4 298 11.1
2008-07-24 07:28:28 51°15.193 2°52.469 301.3 12.4 298 11
2008-07-24 07:28:33 51°15.201 2°52.444 301.4 12.3 298 11
2008-07-24 07:28:37 51°15.208 2°52.425 301 12.4 297 11.1
2008-07-24 07:28:43 51°15.217 2°52.396 300.8 12.4 298 11.1
2008-07-24 07:28:47 51°15.224 2°52.377 301.1 12.4 298 11.2
2008-07-24 07:28:52 51°15.232 2°52.352 301.1 12.5 298 11.2
2008-07-24 07:28:57 51°15.24 2°52.328 301.1 12.4 298 11.3
2008-07-24 07:29:02 51°15.248 2°52.304 301.3 12.4 298 11.3
2008-07-24 07:29:08 51°15.258 2°52.275 301.5 12.4 298 11.3
2008-07-24 07:29:13 51°15.266 2°52.25 301.2 12.5 297 11.4
2008-07-24 07:29:17 51°15.273 2°52.231 301 12.5 299 11.5
2008-07-24 07:29:23 51°15.282 2°52.201 301.2 12.5 297 11.6
2008-07-24 07:29:28 51°15.291 2°52.177 301.1 12.5 299 11.6
2008-07-24 07:29:32 51°15.297 2°52.158 301.3 12.5 298 11.7
2008-07-24 07:29:38 51°15.307 2°52.128 301.2 12.5 299 11.7
2008-07-24 07:29:43 51°15.315 2°52.104 301.6 12.5 298 11.6
2008-07-24 07:29:48 51°15.323 2°52.08 301.3 12.5 298 11.8
2008-07-24 07:29:52 51°15.33 2°52.06 301.1 12.5 299 11.9
2008-07-24 07:29:57 51°15.339 2°52.036 302 12.5 300 11.8
2008-07-24 07:30:03 51°15.349 2°52.008 302.9 12.5 300 11.9
2008-07-24 07:30:08 51°15.358 2°51.984 303.1 12.5 300 11.9
2008-07-24 07:30:12 51°15.365 2°51.964 302.6 12.5 299 11.9
2008-07-24 07:30:17 51°15.373 2°51.94 301.7 12.5 299 12
2008-07-24 07:30:22 51°15.382 2°51.916 301.7 12.5 299 12
2008-07-24 07:30:28 51°15.391 2°51.886 301.1 12.6 297 12.1
2008-07-24 07:30:33 51°15.4 2°51.862 301.1 12.5 299 12.2
2008-07-24 07:30:37 51°15.406 2°51.843 301.1 12.5 298 12.1
2008-07-24 07:30:43 51°15.416 2°51.814 301.1 12.5 299 12.2
2008-07-24 07:30:48 51°15.425 2°51.79 301.4 12.5 299 12.2
2008-07-24 07:30:52 51°15.432 2°51.77 301.7 12.5 299 12.2
2008-07-24 07:30:57 51°15.44 2°51.746 301.3 12.5 299 12.2
2008-07-24 07:31:02 51°15.448 2°51.722 301 12.5 298 12.3
2008-07-24 07:31:08 51°15.458 2°51.693 301 12.5 298 12.3
2008-07-24 07:31:12 51°15.464 2°51.673 300.7 12.5 298 12.3
2008-07-24 07:31:17 51°15.473 2°51.649 301.1 12.5 299 12.4
2008-07-24 07:31:23 51°15.483 2°51.62 301.1 12.5 298 12.4
2008-07-24 07:31:28 51°15.492 2°51.596 301.2 12.5 300 12.5
2008-07-24 07:31:33 51°15.5 2°51.572 301.6 12.5 299 12.5
2008-07-24 07:31:37 51°15.507 2°51.552 301.8 12.5 300 12.5
2008-07-24 07:31:43 51°15.517 2°51.524 301.8 12.5 299 12.6
2008-07-24 07:31:48 51°15.525 2°51.5 301.7 12.5 299 12.5
2008-07-24 07:31:52 51°15.533 2°51.481 301.8 12.5 301 12.5
2008-07-24 07:31:58 51°15.543 2°51.452 302.7 12.6 300 12.5
2008-07-24 07:32:03 51°15.552 2°51.428 303.3 12.6 302 12.6
2008-07-24 07:32:08 51°15.561 2°51.405 304 12.6 301 12.7
2008-07-24 07:32:12 51°15.569 2°51.386 304 12.6 302 12.6
2008-07-24 07:32:18 51°15.58 2°51.357 304 12.5 301 12.6
2008-07-24 07:32:23 51°15.589 2°51.333 304.2 12.5 302 12.6
2008-07-24 07:32:28 51°15.598 2°51.31 304.3 12.5 302 12.7
2008-07-24 07:32:32 51°15.606 2°51.291 304.2 12.5 302 12.6
2008-07-24 07:32:37 51°15.615 2°51.267 304.2 12.5 301 12.8
2008-07-24 07:32:43 51°15.625 2°51.239 304.1 12.5 301 12.8
2008-07-24 07:32:48 51°15.634 2°51.215 303.4 12.4 301 12.8
2008-07-24 07:32:53 51°15.642 2°51.191 303.2 12.5 299 12.8
2008-07-24 07:32:57 51°15.65 2°51.172 302.8 12.5 300 12.9
2008-07-24 07:33:03 51°15.66 2°51.144 303.3 12.4 300 12.8
2008-07-24 07:33:08 51°15.669 2°51.12 303.3 12.4 301 12.9
2008-07-24 07:33:12 51°15.675 2°51.101 304 12.4 300 12.9
2008-07-24 07:33:17 51°15.684 2°51.078 303.7 12.4 301 12.9
2008-07-24 07:33:22 51°15.693 2°51.054 304.1 12.4 301 12.9
2008-07-24 07:33:28 51°15.704 2°51.026 304 12.2 301 12.8
2008-07-24 07:33:33 51°15.712 2°51.002 303.6 12.3 299 12.9
2008-07-24 07:33:37 51°15.719 2°50.983 303.1 12.4 301 13
2008-07-24 07:33:43 51°15.729 2°50.954 303.2 12.4 299 12.9
2008-07-24 07:33:48 51°15.738 2°50.931 302.8 12.4 300 12.9
2008-07-24 07:33:52 51°15.744 2°50.911 302.2 12.4 298 13
2008-07-24 07:33:57 51°15.752 2°50.887 301.3 12.4 297 12.9
2008-07-24 07:34:03 51°15.762 2°50.858 300.4 12.4 298 12.9
2008-07-24 07:34:08 51°15.77 2°50.833 300.4 12.4 297 13
2008-07-24 07:34:12 51°15.776 2°50.814 299.9 12.4 297 13
2008-07-24 07:34:17 51°15.783 2°50.789 299.4 12.5 296 13
2008-07-24 07:34:23 51°15.793 2°50.76 299.3 12.5 298 13
2008-07-24 07:34:28 51°15.801 2°50.735 299.6 12.5 296 12.9
2008-07-24 07:34:32 51°15.807 2°50.716 299.4 12.5 297 12.9
2008-07-24 07:34:37 51°15.815 2°50.691 299.3 12.5 296 12.9
2008-07-24 07:34:43 51°15.824 2°50.661 299.5 12.5 297 12.9
2008-07-24 07:34:48 51°15.832 2°50.637 299.6 12.5 297 12.9
2008-07-24 07:34:52 51°15.838 2°50.617 299.6 12.5 297 13
2008-07-24 07:34:57 51°15.846 2°50.593 299.3 12.6 297 13
2008-07-24 07:35:03 51°15.856 2°50.563 299.5 12.5 297 12.8
2008-07-24 07:35:08 51°15.864 2°50.539 299.4 12.5 298 12.8
2008-07-24 07:35:12 51°15.871 2°50.52 301 12.5 300 12.8
2008-07-24 07:35:17 51°15.88 2°50.496 302.9 12.5 301 12.8
2008-07-24 07:35:22 51°15.889 2°50.473 303.7 12.5 303 12.6
2008-07-24 07:35:28 51°15.9 2°50.445 305.5 12.5 303 12.4
2008-07-24 07:35:33 51°15.911 2°50.423 307 12.4 306 12.1
2008-07-24 07:35:37 51°15.919 2°50.405 308.3 12.5 306 11.8
2008-07-24 07:35:43 51°15.931 2°50.379 308.5 12.5 307 11.6
2008-07-24 07:35:47 51°15.94 2°50.362 309.6 12.4 308 11.3
2008-07-24 07:35:52 51°15.95 2°50.34 310.5 12.4 308 11
2008-07-24 07:35:56 51°15.959 2°50.323 311.6 12.4 310 10.8
2008-07-24 07:36:03 51°15.975 2°50.294 311.7 12.4 311 10.6
2008-07-24 07:36:08 51°15.987 2°50.276 314.2 12.3 315 10.4
2008-07-24 07:36:13 51°16 2°50.257 318.4 12.3 317 10.3
2008-07-24 07:36:17 51°16.01 2°50.243 320.7 12.3 319 10.2
2008-07-24 07:36:23 51°16.026 2°50.222 322.7 12.3 320 10.1
2008-07-24 07:36:28 51°16.039 2°50.205 324.1 12.3 321 10.1
2008-07-24 07:36:32 51°16.05 2°50.192 324.6 12.3 321 10
2008-07-24 07:36:37 51°16.063 2°50.175 325.6 12.3 323 10
2008-07-24 07:36:43 51°16.08 2°50.156 326.5 12.3 323 10
2008-07-24 07:36:48 51°16.094 2°50.141 328.1 12.3 326 10.2
2008-07-24 07:36:52 51°16.105 2°50.129 329.4 12.3 326 10.3
2008-07-24 07:36:57 51°16.119 2°50.115 330.3 12.3 328 10.4
2008-07-24 07:37:03 51°16.137 2°50.098 331.2 12.3 329 10.4
2008-07-24 07:37:08 51°16.152 2°50.085 332.3 12.3 331 10.5
2008-07-24 07:37:12 51°16.164 2°50.075 334.5 12.2 333 10.6
2008-07-24 07:37:17 51°16.179 2°50.063 336.1 12.2 333 10.7
2008-07-24 07:37:23 51°16.197 2°50.048 336.8 12.2 333 10.8
2008-07-24 07:37:28 51°16.212 2°50.036 337.2 12.2 333 10.9
2008-07-24 07:37:33 51°16.228 2°50.023 336.9 12.2 333 11
2008-07-24 07:37:37 51°16.24 2°50.013 336.7 12.2 333 10.9
2008-07-24 07:37:43 51°16.258 2°49.999 337 12.2 333 11.1
2008-07-24 07:37:48 51°16.273 2°49.987 337.4 12.2 334 11
2008-07-24 07:37:52 51°16.285 2°49.977 337.4 12.2 333 11
2008-07-24 07:37:58 51°16.304 2°49.962 337.1 12.2 333 11
2008-07-24 07:38:03 51°16.319 2°49.951 337.6 12.2 335 11.1
2008-07-24 07:38:08 51°16.335 2°49.939 338.4 12.2 335 11
2008-07-24 07:38:13 51°16.35 2°49.928 339 12.1 335 10.9
2008-07-24 07:38:17 51°16.362 2°49.919 339.3 12.2 336 11
2008-07-24 07:38:23 51°16.381 2°49.906 339.5 12.2 336 11.2
2008-07-24 07:38:28 51°16.396 2°49.895 339.7 12.2 336 11.2
2008-07-24 07:38:32 51°16.408 2°49.886 339.3 12.3 335 11.2
2008-07-24 07:38:37 51°16.424 2°49.875 339.5 12.3 336 11.3
2008-07-24 07:38:43 51°16.443 2°49.862 339.6 12.3 336 11.3
2008-07-24 07:38:48 51°16.458 2°49.851 339.6 12.2 336 11.3
2008-07-24 07:38:52 51°16.47 2°49.842 339.8 12.2 336 11.6
2008-07-24 07:38:58 51°16.489 2°49.829 339.7 12.3 336 11.8
2008-07-24 07:39:03 51°16.505 2°49.817 339.5 12.3 335 11.9
2008-07-24 07:39:08 51°16.52 2°49.806 339.2 12.3 335 12.2
2008-07-24 07:39:12 51°16.532 2°49.796 338.8 12.2 334 12.4
2008-07-24 07:39:17 51°16.547 2°49.785 338.7 12.2 335 12.8
2008-07-24 07:39:23 51°16.566 2°49.772 339.8 12.2 337 13.1
2008-07-24 07:39:28 51°16.581 2°49.762 340.8 12.2 337 13.5
2008-07-24 07:39:32 51°16.594 2°49.754 341.4 11.9 337 13.9
2008-07-24 07:39:37 51°16.608 2°49.744 341.8 11.5 338 14
2008-07-24 07:39:42 51°16.622 2°49.735 342.3 10.7 338 14.2
2008-07-24 07:39:48 51°16.638 2°49.726 343 9.9 339 14.3
2008-07-24 07:39:52 51°16.647 2°49.721 344 9.1 340 14.3
2008-07-24 07:39:56 51°16.656 2°49.716 345.8 8.4 341 14.4
2008-07-24 07:40:03 51°16.67 2°49.709 347.3 7.7 342 14.3
2008-07-24 07:40:07 51°16.677 2°49.705 349.4 7.1 344 14
2008-07-24 07:40:12 51°16.686 2°49.701 351.4 6.6 344 14
2008-07-24 07:40:17 51°16.695 2°49.698 352.5 6.1 346 13.8
2008-07-24 07:40:23 51°16.704 2°49.694 354 5.7 347 13.7
2008-07-24 07:40:28 51°16.711 2°49.692 355.4 5.3 347 13.4
2008-07-24 07:40:32 51°16.716 2°49.69 357.2 4.7 349 13.2
2008-07-24 07:40:37 51°16.722 2°49.688 358.4 4.2 347 12.8
2008-07-24 07:40:43 51°16.728 2°49.686 359.2 3.8 348 12.6
2008-07-24 07:40:48 51°16.733 2°49.685 2.5 3.4 352 12.3
2008-07-24 07:40:52 51°16.736 2°49.685 6.4 3.1 353 12.2
2008-07-24 07:40:57 51°16.74 2°49.684 10.8 2.7 355 12.2
2008-07-24 07:41:03 51°16.743 2°49.684 13.7 2.3 354 12.2
2008-07-24 07:41:08 51°16.746 2°49.683 17.5 1.9 357 12.2
2008-07-24 07:41:12 51°16.747 2°49.683 21.2 1.5 348 12.1
2008-07-24 07:41:18 51°16.749 2°49.682 25.2 1.1 342 12.1
2008-07-24 07:41:23 51°16.75 2°49.681 27.5 0.9 326 12
2008-07-24 07:41:28 51°16.751 2°49.679 30.4 0.7 306 12
2008-07-24 07:41:32 51°16.751 2°49.677 32.9 0.9 287 12
2008-07-24 07:41:37 51°16.751 2°49.676 34.9 0.9 270 12
2008-07-24 07:41:43 51°16.751 2°49.673 36.5 0.9 267 12.1
2008-07-24 07:41:48 51°16.751 2°49.671 37 0.8 263 12
2008-07-24 07:41:53 51°16.751 2°49.669 36.9 0.9 269 11.9
2008-07-24 07:41:56 51°16.751 2°49.668 36.5 0.7 267 11.9
2008-07-24 07:42:03 51°16.751 2°49.667 36.3 0.6 297 11.9
2008-07-24 07:42:08 51°16.752 2°49.666 36.2 0.7 339 11.9
2008-07-24 07:42:12 51°16.753 2°49.666 38.2 1 8 11.8
2008-07-24 07:42:17 51°16.755 2°49.668 42 1.3 25 11.8
2008-07-24 07:42:22 51°16.757 2°49.67 47.1 1.6 36 12
2008-07-24 07:42:28 51°16.759 2°49.672 52.9 1.5 39 12
2008-07-24 07:42:32 51°16.759 2°49.674 59 1 45 12
2008-07-24 07:42:36 51°16.76 2°49.674 63.3 0.6 20 12
2008-07-24 07:42:43 51°16.761 2°49.674 65.2 0.4 356 12
2008-07-24 07:42:48 51°16.761 2°49.674 66 0.4 355 12.1
2008-07-24 07:42:52 51°16.762 2°49.673 67 0.4 350 12.1
2008-07-24 07:42:58 51°16.762 2°49.673 68.3 0.3 347 12.3
2008-07-24 07:43:03 51°16.763 2°49.673 69.6 0.3 339 12.2
2008-07-24 07:43:08 51°16.763 2°49.673 71.1 0.4 336 12.3
2008-07-24 07:43:12 51°16.764 2°49.672 72.5 0.4 332 12.3
2008-07-24 07:43:16 51°16.764 2°49.672 73.7 0.3 326 12.3
2008-07-24 07:43:23 51°16.764 2°49.672 74.7 0.3 329 12.4
2008-07-24 07:43:28 51°16.764 2°49.671 75.2 0.3 317 12.3
2008-07-24 07:43:32 51°16.765 2°49.671 75.9 0.3 310 12.3
2008-07-24 07:43:38 51°16.765 2°49.67 76.5 0.4 311 12.3
2008-07-24 07:43:43 51°16.765 2°49.669 77.1 0.3 309 12.3
2008-07-24 07:43:48 51°16.766 2°49.669 77.5 0.3 310 12.2
2008-07-24 07:43:52 51°16.766 2°49.668 77.8 0.3 304 12.3
2008-07-24 07:43:57 51°16.766 2°49.668 77.9 0.3 305 12.2
2008-07-24 07:44:03 51°16.767 2°49.667 78.1 0.4 305 12.2
2008-07-24 07:44:08 51°16.767 2°49.666 78.3 0.5 314 12.2
2008-07-24 07:44:11 51°16.767 2°49.665 78.5 0.3 267 12.2
2008-07-24 07:44:16 51°16.767 2°49.665 78.4 0.5 309 12.1
2008-07-24 07:44:22 51°16.767 2°49.664 78.6 0.4 261 12.1
2008-07-24 07:44:28 51°16.768 2°49.663 78.8 0.5 299 12.1
2008-07-24 07:44:32 51°16.768 2°49.662 78.8 0.4 278 12
2008-07-24 07:44:36 51°16.768 2°49.661 79 0.5 296 11.9
2008-07-24 07:44:43 51°16.768 2°49.66 79 0.4 268 12
2008-07-24 07:44:47 51°16.768 2°49.659 79 0.5 294 11.9
2008-07-24 07:44:52 51°16.769 2°49.659 79 0.5 275 11.9
2008-07-24 07:44:56 51°16.769 2°49.658 79 0.6 289 11.8
2008-07-24 07:45:03 51°16.769 2°49.656 78.9 0.5 278 11.8
2008-07-24 07:45:08 51°16.769 2°49.655 78.7 0.5 284 11.7
2008-07-24 07:45:12 51°16.769 2°49.654 78.5 0.5 278 11.7
2008-07-24 07:45:16 51°16.769 2°49.653 78.2 0.5 285 11.6
2008-07-24 07:45:23 51°16.769 2°49.651 78 0.5 273 11.6
2008-07-24 07:45:28 51°16.769 2°49.65 77.8 0.5 275 11.5
2008-07-24 07:45:32 51°16.77 2°49.649 77.4 0.6 275 11.5
2008-07-24 07:45:38 51°16.77 2°49.647 77 0.6 277 11.5
2008-07-24 07:45:43 51°16.77 2°49.646 76.6 0.6 276 11.6
2008-07-24 07:45:48 51°16.77 2°49.644 76 0.6 278 11.5
2008-07-24 07:45:52 51°16.77 2°49.643 75.3 0.7 274 11.4
2008-07-24 07:45:56 51°16.77 2°49.642 74.6 0.7 269 11.3
2008-07-24 07:46:03 51°16.77 2°49.64 73.7 0.7 271 11.2
2008-07-24 07:46:08 51°16.77 2°49.638 73 0.8 275 11.2
2008-07-24 07:46:12 51°16.77 2°49.637 72.1 0.7 274 11.2
2008-07-24 07:46:16 51°16.77 2°49.636 71.1 0.7 272 11.2
2008-07-24 07:46:23 51°16.77 2°49.633 70.3 0.7 269 11.4
2008-07-24 07:46:28 51°16.77 2°49.632 69.1 0.7 273 11.2
2008-07-24 07:46:32 51°16.77 2°49.63 68 0.8 273 11.1
2008-07-24 07:46:36 51°16.77 2°49.629 66.8 0.8 277 11.1
2008-07-24 07:46:43 51°16.77 2°49.626 65.6 0.8 271 11.1
2008-07-24 07:46:48 51°16.77 2°49.625 64.6 0.8 271 11.2
2008-07-24 07:46:52 51°16.77 2°49.623 63.4 0.8 271 11.2
2008-07-24 07:46:57 51°16.77 2°49.622 62.4 0.8 268 11.1
2008-07-24 07:47:03 51°16.77 2°49.619 61.5 0.8 270 11.1
2008-07-24 07:47:08 51°16.77 2°49.617 60.5 0.8 262 11
2008-07-24 07:47:12 51°16.77 2°49.616 59.6 0.8 267 11
2008-07-24 07:47:16 51°16.77 2°49.614 58.4 0.9 272 10.9
2008-07-24 07:47:23 51°16.77 2°49.611 57.2 0.9 271 11
2008-07-24 07:47:28 51°16.77 2°49.61 56.2 0.9 268 11
2008-07-24 07:47:32 51°16.77 2°49.608 54.8 0.9 272 10.9
2008-07-24 07:47:38 51°16.77 2°49.606 53.6 0.9 268 10.9
2008-07-24 07:47:43 51°16.77 2°49.604 52.5 0.9 270 10.9
2008-07-24 07:47:48 51°16.77 2°49.602 51.1 0.9 269 10.9
2008-07-24 07:47:52 51°16.77 2°49.6 50 0.9 269 10.8
2008-07-24 07:47:56 51°16.77 2°49.598 49 0.9 265 10.8
2008-07-24 07:48:03 51°16.77 2°49.596 47.9 0.9 268 10.9
2008-07-24 07:48:08 51°16.77 2°49.593 47 0.9 265 10.9
2008-07-24 07:48:12 51°16.77 2°49.592 46 1 270 10.9
2008-07-24 07:48:16 51°16.77 2°49.59 44.8 0.9 266 10.8
2008-07-24 07:48:23 51°16.77 2°49.587 43.9 0.9 267 10.8
2008-07-24 07:48:28 51°16.77 2°49.585 43 0.9 266 10.9
2008-07-24 07:48:32 51°16.77 2°49.583 42 1 270 10.8
2008-07-24 07:48:37 51°16.77 2°49.581 41.1 0.9 267 10.8
2008-07-24 07:48:43 51°16.77 2°49.579 40 1 269 10.7
2008-07-24 07:48:48 51°16.77 2°49.577 39.1 1 268 10.8
2008-07-24 07:48:52 51°16.77 2°49.575 37.9 1 267 10.7
2008-07-24 07:48:57 51°16.77 2°49.573 36.9 1 266 10.7
2008-07-24 07:49:02 51°16.769 2°49.571 35.9 1 269 10.7
2008-07-24 07:49:08 51°16.769 2°49.568 35 0.9 269 10.8
2008-07-24 07:49:13 51°16.769 2°49.566 34.1 1 268 10.8
2008-07-24 07:49:17 51°16.769 2°49.564 33.2 1 265 10.8
2008-07-24 07:49:23 51°16.769 2°49.562 32.2 0.9 267 10.8
2008-07-24 07:49:28 51°16.769 2°49.56 31.2 1 267 10.8
2008-07-24 07:49:33 51°16.769 2°49.558 30.4 0.9 264 10.8
2008-07-24 07:49:38 51°16.769 2°49.556 29.4 1 266 10.8
2008-07-24 07:49:43 51°16.769 2°49.554 28.6 0.9 266 10.8
2008-07-24 07:49:48 51°16.768 2°49.551 27.8 0.9 267 10.8
2008-07-24 07:49:53 51°16.768 2°49.55 27 0.9 266 10.9
2008-07-24 07:49:56 51°16.768 2°49.548 26 0.9 272 10.8
2008-07-24 07:50:03 51°16.769 2°49.546 25.5 0.8 282 10.9
2008-07-24 07:50:08 51°16.769 2°49.544 25.6 0.8 292 10.9
2008-07-24 07:50:12 51°16.77 2°49.543 25.1 1 321 10.9
2008-07-24 07:50:17 51°16.772 2°49.542 24 1.5 351 10.8
2008-07-24 07:50:23 51°16.776 2°49.542 21.3 2.5 355 10.6
2008-07-24 07:50:28 51°16.781 2°49.542 17.7 3.4 -999 10.3
2008-07-24 07:50:32 51°16.786 2°49.541 12.2 4.2 353 10
2008-07-24 07:50:36 51°16.791 2°49.539 3.9 4.9 347 9.5
2008-07-24 07:50:43 51°16.802 2°49.532 354.3 5.8 338 9.3
2008-07-24 07:50:48 51°16.81 2°49.526 344.9 6.4 334 9.2
2008-07-24 07:50:52 51°16.817 2°49.52 339.5 7.1 333 9.2
2008-07-24 07:50:56 51°16.826 2°49.513 338.5 8.1 334 8.8
2008-07-24 07:51:02 51°16.839 2°49.503 339.4 8.9 335 9.1
2008-07-24 07:51:08 51°16.853 2°49.493 340.3 9.7 335 9.4
2008-07-24 07:51:13 51°16.866 2°49.483 340.4 10.1 335 9.4
2008-07-24 07:51:16 51°16.874 2°49.478 340.6 10.5 336 9.1
2008-07-24 07:51:23 51°16.893 2°49.464 340.5 10.9 335 8.5
2008-07-24 07:51:28 51°16.908 2°49.454 340.2 11.1 336 9.6
2008-07-24 07:51:32 51°16.919 2°49.445 340.2 11.4 336 9.9
2008-07-24 07:51:37 51°16.934 2°49.434 340 11.6 335 9.9
2008-07-24 07:51:42 51°16.948 2°49.424 340 11.7 335 9.5
2008-07-24 07:51:48 51°16.966 2°49.41 339.4 11.9 333 10
2008-07-24 07:51:52 51°16.978 2°49.4 337.4 11.9 332 10
2008-07-24 07:51:56 51°16.99 2°49.39 336.4 12 332 10.3
2008-07-24 07:52:03 51°17.01 2°49.371 336 12.1 331 10.7
2008-07-24 07:52:08 51°17.025 2°49.359 335.4 12.2 332 10.8
2008-07-24 07:52:12 51°17.037 2°49.349 335.6 12.2 331 10.8
2008-07-24 07:52:18 51°17.055 2°49.333 334.9 12.2 331 11
2008-07-24 07:52:23 51°17.07 2°49.32 334.8 12.2 331 11.2
2008-07-24 07:52:28 51°17.085 2°49.306 334.9 12.3 331 11.2
2008-07-24 07:52:32 51°17.096 2°49.295 334.5 12.2 330 11.2
2008-07-24 07:52:36 51°17.108 2°49.284 333.5 12.2 329 11
2008-07-24 07:52:43 51°17.128 2°49.264 332.3 12.2 328 9.8
2008-07-24 07:52:48 51°17.142 2°49.25 332.1 12.2 328 10.7
2008-07-24 07:52:52 51°17.154 2°49.239 331.8 12.1 328 11
2008-07-24 07:52:57 51°17.168 2°49.224 331.6 12.2 328 11.3
2008-07-24 07:53:03 51°17.185 2°49.207 331.5 12.2 328 11.1
2008-07-24 07:53:08 51°17.2 2°49.193 331.2 12.2 328 11.2
2008-07-24 07:53:13 51°17.214 2°49.179 331.4 12.3 328 11.5
2008-07-24 07:53:16 51°17.223 2°49.17 331.6 12.3 328 11.5
2008-07-24 07:53:23 51°17.243 2°49.15 331.6 12.3 329 11.4
2008-07-24 07:53:28 51°17.257 2°49.135 331.5 12.3 328 11.4
2008-07-24 07:53:32 51°17.269 2°49.124 331.6 12.3 329 11.4
2008-07-24 07:53:37 51°17.283 2°49.11 331.9 12.2 329 11.6
2008-07-24 07:53:43 51°17.301 2°49.094 332.1 12.3 329 11.6
2008-07-24 07:53:48 51°17.315 2°49.08 332.3 12.3 329 11.5
2008-07-24 07:53:52 51°17.327 2°49.068 332.6 12.2 329 11.5
2008-07-24 07:53:56 51°17.339 2°49.058 332.6 12.2 328 11.5
2008-07-24 07:54:03 51°17.359 2°49.038 332.1 12.2 329 11.6
2008-07-24 07:54:08 51°17.373 2°49.024 332.1 12.2 328 11.7
2008-07-24 07:54:13 51°17.388 2°49.009 332.3 12.2 328 11.6
2008-07-24 07:54:16 51°17.396 2°49.001 331.7 12.2 328 11.7
2008-07-24 07:54:23 51°17.416 2°48.981 331.6 12.2 328 11.6
2008-07-24 07:54:28 51°17.431 2°48.966 331.7 12.3 328 11.7
2008-07-24 07:54:32 51°17.442 2°48.955 332.4 12.2 329 11.5
2008-07-24 07:54:38 51°17.46 2°48.939 332.9 12.2 329 11.7
2008-07-24 07:54:43 51°17.474 2°48.925 332.8 12.2 329 11.8
2008-07-24 07:54:48 51°17.489 2°48.911 332.9 12.2 330 11.6
2008-07-24 07:54:52 51°17.501 2°48.9 333.2 12.3 329 11.6
2008-07-24 07:54:58 51°17.518 2°48.883 333.2 12.3 329 11.7
2008-07-24 07:55:03 51°17.533 2°48.869 333.2 12.2 329 11.6
2008-07-24 07:55:08 51°17.547 2°48.855 333 12.3 329 11.6
2008-07-24 07:55:12 51°17.559 2°48.844 332.8 12.2 329 11.4
2008-07-24 07:55:16 51°17.571 2°48.833 332.7 12.2 328 11.5
2008-07-24 07:55:23 51°17.591 2°48.813 332.7 12.2 330 11.6
2008-07-24 07:55:28 51°17.606 2°48.8 333.1 12.2 329 11.4
2008-07-24 07:55:33 51°17.62 2°48.786 333.1 12.2 330 11.2
2008-07-24 07:55:37 51°17.632 2°48.775 333.3 12.2 329 10.9
2008-07-24 07:55:43 51°17.649 2°48.759 333.1 12.2 330 10.7
2008-07-24 07:55:48 51°17.664 2°48.744 333.1 12.2 328 10.4
2008-07-24 07:55:53 51°17.678 2°48.731 333.1 12.2 329 10.2
2008-07-24 07:55:56 51°17.687 2°48.723 333.4 12.1 329 10.2
2008-07-24 07:56:03 51°17.707 2°48.703 333.4 12.1 329 10
2008-07-24 07:56:08 51°17.722 2°48.689 333.5 12.1 329 9.9
2008-07-24 07:56:12 51°17.733 2°48.678 333.4 12.2 329 10.2
2008-07-24 07:56:17 51°17.748 2°48.664 333.2 12.2 328 10.1
2008-07-24 07:56:23 51°17.765 2°48.648 333.3 12.2 330 9.9
2008-07-24 07:56:28 51°17.78 2°48.633 333.3 12.2 328 9.4
2008-07-24 07:56:32 51°17.792 2°48.623 333.5 12.2 331 9.7
2008-07-24 07:56:37 51°17.806 2°48.609 334.2 12.2 329 9.9
2008-07-24 07:56:43 51°17.824 2°48.593 334 12.3 330 10
2008-07-24 07:56:48 51°17.838 2°48.579 333.8 12.3 329 9.8
2008-07-24 07:56:52 51°17.85 2°48.567 333.5 12.2 329 9.5
2008-07-24 07:56:58 51°17.868 2°48.551 333.6 12.3 329 9.5
2008-07-24 07:57:03 51°17.882 2°48.537 333.8 12.3 330 9.6
2008-07-24 07:57:08 51°17.897 2°48.523 334 12.3 329 9.7
2008-07-24 07:57:12 51°17.909 2°48.512 333.9 12.2 329 9.7
2008-07-24 07:57:16 51°17.92 2°48.501 333.7 12.3 329 9.6
2008-07-24 07:57:23 51°17.941 2°48.481 333.1 12.4 329 9.9
2008-07-24 07:57:28 51°17.956 2°48.467 333.1 12.3 329 9.8
2008-07-24 07:57:32 51°17.967 2°48.456 333.8 12.3 329 9.9
2008-07-24 07:57:37 51°17.982 2°48.442 333.6 12.3 329 9.8
2008-07-24 07:57:43 51°18 2°48.425 333.8 12.3 330 9.7
2008-07-24 07:57:48 51°18.015 2°48.411 334.4 12.3 330 9.9
2008-07-24 07:57:52 51°18.026 2°48.4 334.1 12.3 329 9.8
2008-07-24 07:57:56 51°18.038 2°48.389 333.9 12.3 329 10
2008-07-24 07:58:03 51°18.058 2°48.369 333.8 12.3 329 9.5
2008-07-24 07:58:08 51°18.073 2°48.355 333.6 12.3 329 9.3
2008-07-24 07:58:13 51°18.088 2°48.342 333.7 12.3 330 9.6
2008-07-24 07:58:16 51°18.097 2°48.334 334.2 12.3 330 9.9
2008-07-24 07:58:23 51°18.117 2°48.314 334.4 12.3 330 10.1
2008-07-24 07:58:28 51°18.132 2°48.3 334.3 12.3 329 10.1
2008-07-24 07:58:32 51°18.144 2°48.289 333.8 12.4 330 10
2008-07-24 07:58:36 51°18.156 2°48.278 334 12.4 330 10
2008-07-24 07:58:43 51°18.176 2°48.259 334.1 12.4 330 10
2008-07-24 07:58:48 51°18.191 2°48.245 334.2 12.3 330 10.2
2008-07-24 07:58:52 51°18.203 2°48.234 334.4 12.3 330 9.9
2008-07-24 07:58:56 51°18.215 2°48.223 334.2 12.4 330 10
2008-07-24 07:59:03 51°18.236 2°48.204 334.5 12.4 330 10.1
2008-07-24 07:59:07 51°18.247 2°48.193 334 12.4 329 10.5
2008-07-24 07:59:12 51°18.262 2°48.179 333.7 12.4 329 10.6
2008-07-24 07:59:18 51°18.28 2°48.162 333.7 12.4 330 10.7
2008-07-24 07:59:23 51°18.294 2°48.148 334 12.3 329 11
2008-07-24 07:59:28 51°18.309 2°48.134 333.8 12.4 329 11.2
2008-07-24 07:59:32 51°18.321 2°48.123 333.6 12.3 329 11.4
2008-07-24 07:59:36 51°18.333 2°48.112 333.5 12.3 329 11.7
2008-07-24 07:59:43 51°18.353 2°48.092 333.5 12.4 329 11.9
2008-07-24 07:59:48 51°18.368 2°48.078 333.7 12.3 329 12.1
2008-07-24 07:59:52 51°18.38 2°48.067 333.8 12.4 329 12.3
2008-07-24 07:59:56 51°18.392 2°48.056 334.5 12.4 330 12.4
2008-07-24 08:00:03 51°18.412 2°48.036 334.5 12.4 329 12.7
2008-07-24 08:00:08 51°18.427 2°48.023 334.4 12.4 330 12.7
2008-07-24 08:00:12 51°18.439 2°48.011 334.5 12.4 329 12.8
2008-07-24 08:00:17 51°18.454 2°47.997 334.3 12.4 329 13
2008-07-24 08:00:23 51°18.472 2°47.98 334.4 12.4 329 13.1
2008-07-24 08:00:28 51°18.486 2°47.966 334.2 12.4 329 13.3
2008-07-24 08:00:32 51°18.498 2°47.955 334.1 12.4 329 13.4
2008-07-24 08:00:38 51°18.516 2°47.938 334 12.4 329 13.6
2008-07-24 08:00:43 51°18.531 2°47.924 334 12.5 329 13.7
2008-07-24 08:00:48 51°18.546 2°47.909 334.2 12.5 329 13.8
2008-07-24 08:00:53 51°18.56 2°47.895 334 12.4 329 14
2008-07-24 08:00:56 51°18.569 2°47.887 334.2 12.4 329 14
2008-07-24 08:01:03 51°18.59 2°47.867 334.5 12.4 329 14.2
2008-07-24 08:01:08 51°18.605 2°47.853 334.3 12.4 329 14.3
2008-07-24 08:01:12 51°18.617 2°47.842 334.5 12.4 330 14.4
2008-07-24 08:01:18 51°18.635 2°47.826 335.5 12.4 331 14.7
2008-07-24 08:01:23 51°18.65 2°47.813 336.4 12.4 331 14.9
2008-07-24 08:01:28 51°18.665 2°47.8 336.9 12.4 332 15
2008-07-24 08:01:32 51°18.677 2°47.79 337.3 12.4 333 15.2
2008-07-24 08:01:38 51°18.695 2°47.774 337.7 12.4 331 15.3
2008-07-24 08:01:43 51°18.71 2°47.761 337.4 12.4 332 15.5
2008-07-24 08:01:48 51°18.726 2°47.748 337.3 12.4 331 15.6
2008-07-24 08:01:52 51°18.738 2°47.738 337.2 12.5 331 15.9
2008-07-24 08:01:58 51°18.755 2°47.722 336.8 12.4 331 15.8
2008-07-24 08:02:03 51°18.77 2°47.709 336.7 12.4 331 16
2008-07-24 08:02:08 51°18.785 2°47.695 336.8 12.4 331 16
2008-07-24 08:02:12 51°18.797 2°47.684 336.7 12.3 331 16.1
2008-07-24 08:02:16 51°18.809 2°47.673 336.5 12.3 330 16.1
2008-07-24 08:02:23 51°18.83 2°47.654 336 12.4 329 16.7
2008-07-24 08:02:28 51°18.845 2°47.64 335.2 12.4 329 17.2
2008-07-24 08:02:32 51°18.856 2°47.628 334.2 12.4 328 17.6
2008-07-24 08:02:36 51°18.868 2°47.617 333.8 12.4 329 18
2008-07-24 08:02:43 51°18.888 2°47.597 333.8 12.4 329 18.3
2008-07-24 08:02:48 51°18.903 2°47.583 333.7 12.4 327 18.2
2008-07-24 08:02:52 51°18.915 2°47.571 332.8 12.4 328 18.3
2008-07-24 08:02:58 51°18.932 2°47.554 333 12.4 328 18.4
2008-07-24 08:03:03 51°18.947 2°47.54 333.7 12.4 329 18.3
2008-07-24 08:03:08 51°18.962 2°47.526 334.5 12.4 330 18.3
2008-07-24 08:03:13 51°18.977 2°47.513 334.9 12.4 330 18.4
2008-07-24 08:03:18 51°18.991 2°47.498 335.1 12.4 329 18.7
2008-07-24 08:03:23 51°19.006 2°47.484 334.4 12.5 329 18.9
2008-07-24 08:03:28 51°19.021 2°47.469 333.6 12.5 328 19.2
2008-07-24 08:03:32 51°19.032 2°47.458 332.8 12.5 328 19.3
2008-07-24 08:03:38 51°19.05 2°47.44 332.3 12.5 328 19.4
2008-07-24 08:03:43 51°19.065 2°47.426 333 12.5 329 19.5
2008-07-24 08:03:48 51°19.08 2°47.411 332.7 12.5 328 19.7
2008-07-24 08:03:52 51°19.091 2°47.399 332.5 12.5 328 19.8
2008-07-24 08:03:58 51°19.109 2°47.382 332.2 12.5 328 19.9
2008-07-24 08:04:03 51°19.124 2°47.367 332.3 12.5 328 19.9
2008-07-24 08:04:08 51°19.138 2°47.353 332.7 12.4 329 20
2008-07-24 08:04:13 51°19.153 2°47.339 332.5 12.5 328 20.1
2008-07-24 08:04:17 51°19.165 2°47.327 332.5 12.5 329 20.2
2008-07-24 08:04:23 51°19.183 2°47.31 332.5 12.5 329 20.3
2008-07-24 08:04:28 51°19.197 2°47.295 332.5 12.5 328 20.3
2008-07-24 08:04:32 51°19.209 2°47.284 332.4 12.5 329 20.4
2008-07-24 08:04:36 51°19.221 2°47.273 332.6 12.5 329 20.7
2008-07-24 08:04:43 51°19.242 2°47.253 332.4 12.5 329 20.8
2008-07-24 08:04:48 51°19.257 2°47.238 332.3 12.5 329 20.8
2008-07-24 08:04:53 51°19.272 2°47.224 332.3 12.6 329 20.9
2008-07-24 08:04:57 51°19.284 2°47.212 332 12.5 328 20.7
2008-07-24 08:05:03 51°19.301 2°47.195 331.9 12.5 329 20.6
2008-07-24 08:05:08 51°19.316 2°47.181 331.8 12.5 329 20.8
2008-07-24 08:05:13 51°19.331 2°47.166 332.1 12.5 329 20.8
2008-07-24 08:05:17 51°19.343 2°47.155 332.3 12.5 330 20.9
2008-07-24 08:05:23 51°19.361 2°47.138 332.6 12.5 330 20.8
2008-07-24 08:05:28 51°19.376 2°47.124 332.8 12.5 330 21
2008-07-24 08:05:33 51°19.39 2°47.11 332.8 12.5 329 20.7
2008-07-24 08:05:37 51°19.402 2°47.099 332.8 12.5 330 20.8
2008-07-24 08:05:43 51°19.421 2°47.082 333.1 12.5 330 21
2008-07-24 08:05:48 51°19.435 2°47.068 333 12.5 329 21.1
2008-07-24 08:05:52 51°19.448 2°47.058 333 12.5 332 21
2008-07-24 08:05:58 51°19.465 2°47.042 333.4 12.4 330 20.9
2008-07-24 08:06:03 51°19.481 2°47.029 333.5 12.3 332 20.8
2008-07-24 08:06:08 51°19.495 2°47.015 332.8 12.3 330 20.9
2008-07-24 08:06:12 51°19.507 2°47.005 332.9 12.3 331 20.9
2008-07-24 08:06:16 51°19.519 2°46.994 332.8 12.3 329 20.9
2008-07-24 08:06:23 51°19.54 2°46.975 332.6 12.3 331 20.9
2008-07-24 08:06:28 51°19.554 2°46.962 332.9 12.2 330 20.9
2008-07-24 08:06:33 51°19.569 2°46.948 333 12.2 330 20.9
2008-07-24 08:06:37 51°19.581 2°46.937 332.4 12.2 330 20.8
2008-07-24 08:06:43 51°19.599 2°46.922 332.8 12.2 330 20.7
2008-07-24 08:06:48 51°19.613 2°46.908 332.5 12.2 330 20.6
2008-07-24 08:06:53 51°19.628 2°46.895 332.5 12.2 330 20.4
2008-07-24 08:06:57 51°19.64 2°46.884 332.7 12.2 331 20.5
2008-07-24 08:07:03 51°19.657 2°46.868 332.8 12.2 330 20.3
2008-07-24 08:07:08 51°19.672 2°46.854 332.6 12.2 331 20.3
2008-07-24 08:07:13 51°19.687 2°46.841 332.8 12.2 330 20.3
2008-07-24 08:07:17 51°19.699 2°46.83 332.9 12.3 331 20.2
2008-07-24 08:07:23 51°19.716 2°46.814 333 12.3 330 20
2008-07-24 08:07:28 51°19.731 2°46.801 333.1 12.3 330 19.8
2008-07-24 08:07:32 51°19.743 2°46.79 333 12.3 330 19.6
2008-07-24 08:07:37 51°19.758 2°46.776 332.8 12.3 330 19.5
2008-07-24 08:07:43 51°19.776 2°46.76 332.7 12.4 329 18.9
2008-07-24 08:07:48 51°19.79 2°46.746 332.6 12.4 330 18.9
2008-07-24 08:07:53 51°19.805 2°46.733 333 12.3 331 18.6
2008-07-24 08:07:57 51°19.817 2°46.722 333.8 12.3 331 18.4
2008-07-24 08:08:03 51°19.835 2°46.706 334.2 12.3 331 18.4
2008-07-24 08:08:08 51°19.85 2°46.694 334.7 12.3 332 18.3
2008-07-24 08:08:12 51°19.863 2°46.683 335.2 12.3 332 18.1
2008-07-24 08:08:18 51°19.881 2°46.668 335.6 12.3 333 18.1
2008-07-24 08:08:23 51°19.896 2°46.655 335.9 12.4 332 17.8
2008-07-24 08:08:28 51°19.911 2°46.642 335.3 12.4 331 17.6
2008-07-24 08:08:32 51°19.923 2°46.631 334.4 12.4 330 16.5
2008-07-24 08:08:38 51°19.941 2°46.616 333.7 12.3 331 15.2
2008-07-24 08:08:43 51°19.956 2°46.602 333.8 12.4 330 16.2
2008-07-24 08:08:48 51°19.971 2°46.589 333.8 12.4 332 16.2
2008-07-24 08:08:52 51°19.983 2°46.578 334 12.4 330 16
2008-07-24 08:08:56 51°19.995 2°46.567 333.2 12.4 330 15.9
2008-07-24 08:09:03 51°20.016 2°46.547 332.8 12.4 329 15.8
2008-07-24 08:09:08 51°20.031 2°46.533 332.3 12.4 329 16.1
2008-07-24 08:09:13 51°20.045 2°46.519 332.3 12.4 329 15.7
2008-07-24 08:09:16 51°20.054 2°46.511 331.8 12.4 329 14.7
2008-07-24 08:09:23 51°20.075 2°46.491 331.6 12.4 329 14.4
2008-07-24 08:09:28 51°20.09 2°46.477 332.3 12.4 330 14.1
2008-07-24 08:09:32 51°20.101 2°46.466 332.3 12.4 329 13
2008-07-24 08:09:37 51°20.116 2°46.452 332.6 12.4 330 12.9
2008-07-24 08:09:43 51°20.134 2°46.435 332.5 12.4 329 13.5
2008-07-24 08:09:48 51°20.149 2°46.421 332.3 12.5 329 14
2008-07-24 08:09:52 51°20.161 2°46.41 332.3 12.5 329 14.5
2008-07-24 08:09:57 51°20.175 2°46.395 332.2 12.5 329 15
2008-07-24 08:10:03 51°20.193 2°46.379 332.2 12.5 330 15
2008-07-24 08:10:08 51°20.208 2°46.365 332.4 12.5 329 14.7
2008-07-24 08:10:13 51°20.223 2°46.351 332.4 12.5 330 14
2008-07-24 08:10:18 51°20.238 2°46.337 332.3 12.5 329 14.1
2008-07-24 08:10:23 51°20.253 2°46.323 332.6 12.5 330 14.8
2008-07-24 08:10:28 51°20.268 2°46.309 333.1 12.5 330 15.4
2008-07-24 08:10:32 51°20.28 2°46.297 333 12.6 329 16.1
2008-07-24 08:10:38 51°20.298 2°46.281 332.8 12.5 329 16
2008-07-24 08:10:43 51°20.313 2°46.267 332.5 12.5 330 16.1
2008-07-24 08:10:48 51°20.328 2°46.253 333 12.5 330 16.1
2008-07-24 08:10:52 51°20.34 2°46.242 333.4 12.6 330 16.9
2008-07-24 08:10:56 51°20.352 2°46.231 333.6 12.6 331 17.5
2008-07-24 08:11:03 51°20.373 2°46.212 333.6 12.6 330 18.4
2008-07-24 08:11:08 51°20.388 2°46.198 333.4 12.6 330 19.3
2008-07-24 08:11:12 51°20.4 2°46.187 333.3 12.6 330 19.9
2008-07-24 08:11:16 51°20.413 2°46.175 332.9 12.6 330 20
2008-07-24 08:11:23 51°20.434 2°46.156 332.7 12.6 330 20
2008-07-24 08:11:28 51°20.449 2°46.142 332.9 12.5 330 20
2008-07-24 08:11:32 51°20.461 2°46.131 332.6 12.6 330 20.3
2008-07-24 08:11:37 51°20.476 2°46.117 333.1 12.6 330 19.9
2008-07-24 08:11:43 51°20.494 2°46.101 333.1 12.6 330 20.2
2008-07-24 08:11:48 51°20.509 2°46.087 333 12.6 330 20.5
2008-07-24 08:11:52 51°20.521 2°46.075 332.7 12.6 330 20.8
2008-07-24 08:11:56 51°20.533 2°46.064 332.4 12.6 329 20.9
2008-07-24 08:12:03 51°20.554 2°46.044 332.5 12.5 329 21
2008-07-24 08:12:08 51°20.569 2°46.03 332.3 12.5 328 21
2008-07-24 08:12:13 51°20.584 2°46.015 332.1 12.5 329 21.5
2008-07-24 08:12:17 51°20.596 2°46.004 332.1 12.5 329 21.7
2008-07-24 08:12:23 51°20.613 2°45.987 332.3 12.4 329 22
2008-07-24 08:12:28 51°20.628 2°45.972 332.3 12.4 329 21.9
2008-07-24 08:12:32 51°20.64 2°45.961 332.3 12.5 328 21.5
2008-07-24 08:12:38 51°20.658 2°45.945 333.4 12.5 330 22.2
2008-07-24 08:12:43 51°20.673 2°45.93 333 12.5 329 22.5
2008-07-24 08:12:48 51°20.688 2°45.917 333.1 12.5 331 23.3
2008-07-24 08:12:52 51°20.7 2°45.906 334.5 12.5 331 23.7
2008-07-24 08:12:58 51°20.718 2°45.89 334.8 12.5 331 24.2
2008-07-24 08:13:03 51°20.733 2°45.877 334.7 12.5 331 24.3
2008-07-24 08:13:08 51°20.749 2°45.863 334.2 12.5 330 24.5
2008-07-24 08:13:13 51°20.764 2°45.849 333.5 12.6 331 24.7
2008-07-24 08:13:16 51°20.773 2°45.841 333.8 12.6 330 24.9
2008-07-24 08:13:23 51°20.794 2°45.822 334.5 12.5 332 24.6
2008-07-24 08:13:28 51°20.81 2°45.809 334.7 12.5 332 24.2
2008-07-24 08:13:32 51°20.822 2°45.799 335.4 12.6 332 23
2008-07-24 08:13:36 51°20.834 2°45.789 335.3 12.6 332 22.7
2008-07-24 08:13:43 51°20.856 2°45.77 335.7 12.5 332 22.8
2008-07-24 08:13:48 51°20.871 2°45.757 335.6 12.5 332 22.6
2008-07-24 08:13:52 51°20.884 2°45.747 335.7 12.6 332 22.8
2008-07-24 08:13:56 51°20.896 2°45.737 335.7 12.5 333 23.5
2008-07-24 08:14:03 51°20.918 2°45.719 336.2 12.6 333 23.9
2008-07-24 08:14:08 51°20.933 2°45.708 336.2 12.5 334 24.3
2008-07-24 08:14:12 51°20.946 2°45.697 336.5 12.4 333 24.5
2008-07-24 08:14:16 51°20.958 2°45.688 336.3 12.5 334 24.6
2008-07-24 08:14:23 51°20.98 2°45.67 336.1 12.5 333 24.9
2008-07-24 08:14:28 51°20.996 2°45.659 336.1 12.5 334 25.2
2008-07-24 08:14:32 51°21.008 2°45.648 336 12.5 333 25.3
2008-07-24 08:14:38 51°21.027 2°45.634 336 12.5 334 25.4
2008-07-24 08:14:43 51°21.042 2°45.621 335.7 12.5 333 25.6
2008-07-24 08:14:48 51°21.058 2°45.609 335.5 12.5 334 25.6
2008-07-24 08:14:52 51°21.07 2°45.598 335.4 12.5 332 25.6
2008-07-24 08:14:58 51°21.088 2°45.584 334.8 12.5 333 25.6
2008-07-24 08:15:03 51°21.104 2°45.571 335.2 12.5 332 25.3
2008-07-24 08:15:08 51°21.119 2°45.558 334.7 12.4 333 25.4
2008-07-24 08:15:12 51°21.131 2°45.547 334.1 12.3 331 25.5
2008-07-24 08:15:18 51°21.149 2°45.531 333.1 12.4 331 25.4
2008-07-24 08:15:23 51°21.164 2°45.517 332.8 12.4 329 25.5
2008-07-24 08:15:28 51°21.179 2°45.504 332.5 12.3 331 25.4
2008-07-24 08:15:32 51°21.191 2°45.493 332.3 12.4 329 25.6
2008-07-24 08:15:36 51°21.203 2°45.482 332 12.4 331 25.5
2008-07-24 08:15:43 51°21.223 2°45.463 332.1 12.4 330 25.3
2008-07-24 08:15:48 51°21.239 2°45.449 332.4 12.5 330 25.5
2008-07-24 08:15:53 51°21.253 2°45.435 332.1 12.5 329 25.5
2008-07-24 08:15:57 51°21.265 2°45.424 331.6 12.4 329 25.4
2008-07-24 08:16:03 51°21.282 2°45.406 331.4 12.4 327 25.3
2008-07-24 08:16:08 51°21.297 2°45.392 331 12.4 329 25.3
2008-07-24 08:16:13 51°21.312 2°45.378 331.2 12.3 328 25.2
2008-07-24 08:16:16 51°21.32 2°45.369 331.4 12.4 328 25.2
2008-07-24 08:16:23 51°21.341 2°45.35 331.8 12.4 329 25
2008-07-24 08:16:28 51°21.356 2°45.336 331.8 12.3 330 24.9
2008-07-24 08:16:32 51°21.367 2°45.324 332.3 12.4 329 24.7
2008-07-24 08:16:36 51°21.379 2°45.314 332.7 12.4 331 24.6
2008-07-24 08:16:43 51°21.4 2°45.294 333.4 12.4 329 24.6
2008-07-24 08:16:48 51°21.415 2°45.282 333.8 12.4 332 24.4
2008-07-24 08:16:52 51°21.428 2°45.27 334.5 12.4 330 24.1
2008-07-24 08:16:58 51°21.446 2°45.254 333.8 12.5 330 24.1
2008-07-24 08:17:03 51°21.46 2°45.24 333.8 12.5 330 24.1
2008-07-24 08:17:08 51°21.475 2°45.226 333 12.5 329 23.8
2008-07-24 08:17:12 51°21.487 2°45.215 332.7 12.5 329 23.5
2008-07-24 08:17:18 51°21.505 2°45.198 332.7 12.5 330 23.6
2008-07-24 08:17:23 51°21.52 2°45.183 332.8 12.5 329 23.4
2008-07-24 08:17:28 51°21.535 2°45.17 332.6 12.5 330 23
2008-07-24 08:17:32 51°21.547 2°45.159 333.8 12.5 330 22.9
2008-07-24 08:17:37 51°21.562 2°45.145 333.8 12.5 331 22.8
2008-07-24 08:17:43 51°21.58 2°45.129 334.6 12.5 331 22.6
2008-07-24 08:17:48 51°21.596 2°45.116 334.6 12.6 332 22.3
2008-07-24 08:17:52 51°21.608 2°45.105 335.2 12.6 331 22.4
2008-07-24 08:17:56 51°21.62 2°45.094 334.4 12.6 330 22.3
2008-07-24 08:18:03 51°21.641 2°45.075 333.8 12.5 330 22.2
2008-07-24 08:18:08 51°21.656 2°45.061 333.1 12.5 330 22
2008-07-24 08:18:12 51°21.668 2°45.05 333.1 12.5 330 22.1
2008-07-24 08:18:17 51°21.683 2°45.036 333 12.6 330 22
2008-07-24 08:18:23 51°21.701 2°45.019 332.9 12.5 330 21.9
2008-07-24 08:18:28 51°21.716 2°45.005 332.7 12.5 330 21.9
2008-07-24 08:18:33 51°21.731 2°44.991 332.5 12.5 330 21.9
2008-07-24 08:18:37 51°21.743 2°44.98 332.5 12.6 329 22
2008-07-24 08:18:43 51°21.761 2°44.963 332.3 12.5 330 21.7
2008-07-24 08:18:48 51°21.776 2°44.949 331.9 12.5 329 21.8
2008-07-24 08:18:53 51°21.791 2°44.935 332.1 12.6 329 21.8
2008-07-24 08:18:57 51°21.803 2°44.924 332.2 12.6 331 21.8
2008-07-24 08:19:03 51°21.821 2°44.907 332.5 12.5 330 21.2
2008-07-24 08:19:08 51°21.836 2°44.893 332.4 12.5 330 20.4
2008-07-24 08:19:12 51°21.848 2°44.882 332.2 12.5 330 19.2
2008-07-24 08:19:17 51°21.863 2°44.869 332.4 12.6 331 20.8
2008-07-24 08:19:23 51°21.881 2°44.852 333 12.5 330 21.5
2008-07-24 08:19:28 51°21.896 2°44.838 332.6 12.5 331 21.8
2008-07-24 08:19:32 51°21.909 2°44.827 332 12.6 330 22.1
2008-07-24 08:19:38 51°21.927 2°44.811 332.6 12.6 331 22.5
2008-07-24 08:19:43 51°21.942 2°44.797 332.7 12.5 330 22.7
2008-07-24 08:19:48 51°21.957 2°44.784 333 12.5 332 22.9
2008-07-24 08:19:53 51°21.972 2°44.77 333 12.5 329 22.9
2008-07-24 08:19:57 51°21.984 2°44.759 332.5 12.5 331 22.8
2008-07-24 08:20:03 51°22.002 2°44.742 332.3 12.5 330 22.4
2008-07-24 08:20:08 51°22.017 2°44.729 332.9 12.5 332 22.1
2008-07-24 08:20:13 51°22.033 2°44.716 333.3 12.5 331 21.7
2008-07-24 08:20:17 51°22.045 2°44.705 333.3 12.5 331 22.1
2008-07-24 08:20:23 51°22.063 2°44.689 333.1 12.5 331 22.3
2008-07-24 08:20:28 51°22.078 2°44.676 333.5 12.5 332 21.8
2008-07-24 08:20:33 51°22.093 2°44.662 333.8 12.6 331 20.9
2008-07-24 08:20:37 51°22.105 2°44.651 333.5 12.5 330 22.3
2008-07-24 08:20:43 51°22.123 2°44.635 332.8 12.4 331 22.8
2008-07-24 08:20:48 51°22.138 2°44.622 332.7 12.4 330 22.8
2008-07-24 08:20:53 51°22.153 2°44.608 332.5 12.4 330 22.7
2008-07-24 08:20:57 51°22.165 2°44.597 332.5 12.4 330 22.1
2008-07-24 08:21:03 51°22.183 2°44.58 332.3 12.4 330 22.8
2008-07-24 08:21:08 51°22.198 2°44.567 332.5 12.4 330 23.3
2008-07-24 08:21:13 51°22.213 2°44.553 332.3 12.4 330 24.1
2008-07-24 08:21:18 51°22.228 2°44.539 332.4 12.4 331 24.1
2008-07-24 08:21:23 51°22.243 2°44.525 332.9 12.4 330 24.2
2008-07-24 08:21:28 51°22.258 2°44.512 333 12.5 331 24.1
2008-07-24 08:21:32 51°22.27 2°44.501 332.9 12.4 330 24.1
2008-07-24 08:21:38 51°22.288 2°44.485 333 12.5 331 24.3
2008-07-24 08:21:43 51°22.303 2°44.471 333.2 12.4 330 24.4
2008-07-24 08:21:48 51°22.318 2°44.457 332.9 12.4 329 24.4
2008-07-24 08:21:53 51°22.333 2°44.443 332 12.4 330 24.7
2008-07-24 08:21:58 51°22.348 2°44.429 332.1 12.5 329 24.7
2008-07-24 08:22:03 51°22.363 2°44.415 332.2 12.4 329 24.7
2008-07-24 08:22:08 51°22.377 2°44.401 332 12.4 329 24.8
2008-07-24 08:22:13 51°22.392 2°44.387 332.2 12.5 329 25.2
2008-07-24 08:22:17 51°22.404 2°44.376 332.4 12.5 331 25.1
2008-07-24 08:22:23 51°22.422 2°44.36 332.9 12.4 330 25.1
2008-07-24 08:22:28 51°22.437 2°44.346 333 12.4 330 25.3
2008-07-24 08:22:32 51°22.449 2°44.335 333.2 12.5 331 25
2008-07-24 08:22:37 51°22.464 2°44.322 333.6 12.4 331 25.2
2008-07-24 08:22:43 51°22.482 2°44.305 333.7 12.4 330 25.3
2008-07-24 08:22:48 51°22.497 2°44.292 333.2 12.4 330 25.1
2008-07-24 08:22:53 51°22.512 2°44.277 333 12.4 329 25.2
2008-07-24 08:22:57 51°22.524 2°44.267 332.8 12.4 330 25.2
2008-07-24 08:23:03 51°22.541 2°44.249 332.6 12.4 329 25.2
2008-07-24 08:23:08 51°22.556 2°44.235 332.6 12.4 330 25
2008-07-24 08:23:12 51°22.568 2°44.224 332.7 12.4 329 24.9
2008-07-24 08:23:17 51°22.583 2°44.21 332.8 12.4 330 25.1
2008-07-24 08:23:23 51°22.6 2°44.193 333.2 12.4 330 25.1
2008-07-24 08:23:28 51°22.615 2°44.179 333.1 12.4 329 24.3
2008-07-24 08:23:33 51°22.63 2°44.166 333.2 12.4 330 25
2008-07-24 08:23:38 51°22.644 2°44.152 333.3 12.4 329 25
2008-07-24 08:23:43 51°22.66 2°44.138 333.4 12.4 330 25
2008-07-24 08:23:48 51°22.674 2°44.124 332.8 12.4 329 25
2008-07-24 08:23:52 51°22.686 2°44.112 332.9 12.5 329 24.9
2008-07-24 08:23:58 51°22.704 2°44.096 333 12.5 330 24.7
2008-07-24 08:24:03 51°22.719 2°44.081 333.1 12.4 329 24.3
2008-07-24 08:24:08 51°22.734 2°44.067 332.9 12.4 330 24.3
2008-07-24 08:24:12 51°22.746 2°44.056 332.9 12.4 329 24.7
2008-07-24 08:24:17 51°22.761 2°44.043 333.5 12.4 332 24.8
2008-07-24 08:24:23 51°22.779 2°44.026 334.5 12.4 330 25.1
2008-07-24 08:24:28 51°22.794 2°44.013 334.5 12.4 331 25.1
2008-07-24 08:24:32 51°22.806 2°44.003 335.2 12.4 332 25.1
2008-07-24 08:24:37 51°22.821 2°43.989 335.1 12.4 331 25.4
2008-07-24 08:24:43 51°22.839 2°43.973 334.6 12.5 330 25.9
2008-07-24 08:24:48 51°22.854 2°43.96 334.2 12.4 331 25.8
2008-07-24 08:24:53 51°22.869 2°43.946 334.9 12.4 331 26.2
2008-07-24 08:24:57 51°22.881 2°43.936 335.1 12.3 331 26
2008-07-24 08:25:03 51°22.899 2°43.92 335.4 12.4 331 26
2008-07-24 08:25:08 51°22.915 2°43.907 335.8 12.4 332 26.2
2008-07-24 08:25:13 51°22.93 2°43.894 335.6 12.4 332 26.2
2008-07-24 08:25:17 51°22.942 2°43.884 336 12.4 332 26.1
2008-07-24 08:25:23 51°22.96 2°43.869 335.9 12.4 332 25.8
2008-07-24 08:25:28 51°22.976 2°43.856 335.8 12.4 332 25.9
2008-07-24 08:25:33 51°22.991 2°43.843 335.7 12.4 331 25.9
2008-07-24 08:25:38 51°23.006 2°43.83 335.4 12.4 333 25.8
2008-07-24 08:25:43 51°23.021 2°43.816 335 12.4 329 25.1
2008-07-24 08:25:48 51°23.036 2°43.803 333.8 12.4 331 24.5
2008-07-24 08:25:53 51°23.051 2°43.788 333.2 12.4 329 25.5
2008-07-24 08:25:58 51°23.066 2°43.774 333.1 12.4 330 25.1
2008-07-24 08:26:03 51°23.081 2°43.76 333.9 12.5 330 24.2
2008-07-24 08:26:08 51°23.096 2°43.747 334 12.5 330 24.8
2008-07-24 08:26:12 51°23.108 2°43.736 334.5 12.5 331 25.4
2008-07-24 08:26:17 51°23.123 2°43.722 334.4 12.5 330 25.6
2008-07-24 08:26:23 51°23.14 2°43.706 333.7 12.5 330 26.1
2008-07-24 08:26:28 51°23.155 2°43.691 333.4 12.5 329 26.2
2008-07-24 08:26:32 51°23.167 2°43.68 332.4 12.5 329 26.6
2008-07-24 08:26:37 51°23.182 2°43.666 332.8 12.5 329 26.4
2008-07-24 08:26:43 51°23.2 2°43.648 332.5 12.5 329 26.1
2008-07-24 08:26:48 51°23.215 2°43.634 332.6 12.6 329 26.2
2008-07-24 08:26:52 51°23.227 2°43.623 333 12.5 330 26.3
2008-07-24 08:26:57 51°23.242 2°43.61 333.3 12.5 330 26.1
2008-07-24 08:27:03 51°23.26 2°43.593 333.1 12.5 329 25.8
2008-07-24 08:27:08 51°23.275 2°43.579 333 12.6 330 25.4
2008-07-24 08:27:12 51°23.287 2°43.568 333.2 12.6 330 25.2
2008-07-24 08:27:17 51°23.302 2°43.554 334 12.6 330 25.7
2008-07-24 08:27:23 51°23.321 2°43.538 334.5 12.5 332 25.3
2008-07-24 08:27:28 51°23.336 2°43.524 334.2 12.5 330 25
2008-07-24 08:27:33 51°23.351 2°43.51 333.1 12.5 330 24.1
2008-07-24 08:27:37 51°23.363 2°43.498 333 12.6 329 25.7
2008-07-24 08:27:43 51°23.381 2°43.481 332.6 12.6 329 26.1
2008-07-24 08:27:48 51°23.396 2°43.467 332.6 12.6 330 26
2008-07-24 08:27:53 51°23.411 2°43.453 332.2 12.6 329 25.9
2008-07-24 08:27:57 51°23.423 2°43.442 332.5 12.6 330 25.9
2008-07-24 08:28:03 51°23.441 2°43.425 332.7 12.6 329 25.6
2008-07-24 08:28:08 51°23.456 2°43.41 332.6 12.6 329 25.8
2008-07-24 08:28:12 51°23.468 2°43.399 332.5 12.6 329 25.5
2008-07-24 08:28:18 51°23.486 2°43.382 332.5 12.5 329 25.7
2008-07-24 08:28:23 51°23.501 2°43.369 333 12.5 331 25.7
2008-07-24 08:28:28 51°23.516 2°43.355 333.2 12.5 330 25.6
2008-07-24 08:28:32 51°23.528 2°43.345 333.8 12.5 331 25.4
2008-07-24 08:28:38 51°23.546 2°43.328 334.5 12.4 331 25
2008-07-24 08:28:43 51°23.561 2°43.315 333.8 12.5 331 25.3
2008-07-24 08:28:48 51°23.577 2°43.301 333.8 12.5 331 26
2008-07-24 08:28:52 51°23.589 2°43.291 334.3 12.5 331 26.1
2008-07-24 08:28:57 51°23.604 2°43.277 333.7 12.5 330 25.6
2008-07-24 08:29:03 51°23.622 2°43.26 333.4 12.5 330 25.7
2008-07-24 08:29:08 51°23.637 2°43.247 333.1 12.5 331 25.9
2008-07-24 08:29:13 51°23.652 2°43.233 333.9 12.4 331 25.7
2008-07-24 08:29:17 51°23.664 2°43.223 334.5 12.5 331 25.3
2008-07-24 08:29:23 51°23.682 2°43.207 334 12.5 331 25.5
2008-07-24 08:29:28 51°23.697 2°43.194 334.1 12.5 331 26.3
2008-07-24 08:29:32 51°23.709 2°43.183 334.5 12.4 332 25.4
2008-07-24 08:29:38 51°23.727 2°43.167 333.9 12.4 330 25.3
2008-07-24 08:29:43 51°23.743 2°43.154 334 12.4 331 25.1
2008-07-24 08:29:48 51°23.757 2°43.14 333.9 12.4 330 25
2008-07-24 08:29:53 51°23.772 2°43.126 333.3 12.4 330 25.6
2008-07-24 08:29:57 51°23.784 2°43.115 332.6 12.5 329 25.1
2008-07-24 08:30:03 51°23.802 2°43.098 332.2 12.4 329 24.8
2008-07-24 08:30:08 51°23.817 2°43.083 331.8 12.4 329 25.1
2008-07-24 08:30:13 51°23.832 2°43.069 332.3 12.4 329 25
2008-07-24 08:30:17 51°23.844 2°43.058 332.1 12.4 330 25.2
2008-07-24 08:30:23 51°23.861 2°43.041 332.3 12.4 329 25.6
2008-07-24 08:30:28 51°23.876 2°43.028 332.5 12.4 330 25.9
2008-07-24 08:30:33 51°23.891 2°43.013 332.2 12.4 328 25.9